createdAt,value
2018-08-24T00:00:19.024Z,1.23
2018-08-24T00:03:23.236Z,1.30
2018-08-24T00:06:27.452Z,1.60
2018-08-24T00:09:31.652Z,1.37
2018-08-24T00:12:35.876Z,1.50
2018-08-24T00:15:40.100Z,1.40
2018-08-24T00:18:44.321Z,1.57
2018-08-24T00:21:49.031Z,1.60
2018-08-24T00:24:53.260Z,1.70
2018-08-24T00:27:57.493Z,2.60
2018-08-24T00:31:01.684Z,1.70
2018-08-24T00:34:05.920Z,1.77
2018-08-24T00:37:10.132Z,1.80
2018-08-24T00:40:14.368Z,2.00
2018-08-24T00:43:18.604Z,1.90
2018-08-24T00:46:23.481Z,1.80
2018-08-24T00:49:28.024Z,1.40
2018-08-24T00:52:32.245Z,1.83
2018-08-24T00:55:36.428Z,1.20
2018-08-24T00:58:40.845Z,0.80
2018-08-24T01:01:45.063Z,1.53
2018-08-24T01:04:49.253Z,0.90
2018-08-24T01:07:58.625Z,0.83
2018-08-24T01:11:02.808Z,0.97
2018-08-24T01:14:07.048Z,0.70
2018-08-24T01:17:16.479Z,0.70
2018-08-24T01:20:23.504Z,0.80
2018-08-24T01:23:29.967Z,0.80
2018-08-24T01:26:34.187Z,0.87
2018-08-24T01:29:39.524Z,0.80
2018-08-24T01:32:43.752Z,0.73
2018-08-24T01:35:48.675Z,0.80
2018-08-24T01:38:52.945Z,0.93
2018-08-24T01:41:57.193Z,0.80
2018-08-24T01:45:01.406Z,0.90
2018-08-24T01:48:05.761Z,1.30
2018-08-24T01:51:09.980Z,1.33
2018-08-24T01:54:14.359Z,1.00
2018-08-24T01:57:18.576Z,1.10
2018-08-24T02:00:22.788Z,1.00
2018-08-24T02:03:27.019Z,0.90
2018-08-24T02:06:31.224Z,1.17
2018-08-24T02:09:35.447Z,1.17
2018-08-24T02:12:45.149Z,1.20
2018-08-24T02:15:49.357Z,1.40
2018-08-24T02:18:58.802Z,1.23
2018-08-24T02:22:08.303Z,1.33
2018-08-24T02:25:12.513Z,1.40
2018-08-24T02:28:16.769Z,1.57
2018-08-24T02:31:21.042Z,1.33
2018-08-24T02:34:25.231Z,1.50
2018-08-24T02:37:30.860Z,1.40
2018-08-24T02:40:35.070Z,1.50
2018-08-24T02:43:39.279Z,1.53
2018-08-24T02:46:44.427Z,1.30
2018-08-24T02:49:48.635Z,1.23
2018-08-24T02:52:52.849Z,1.40
2018-08-24T02:55:57.056Z,1.30
2018-08-24T02:59:01.335Z,1.40
2018-08-24T03:02:05.578Z,1.40
2018-08-24T03:05:09.936Z,1.30
2018-08-24T03:08:14.112Z,1.37
2018-08-24T03:11:18.332Z,1.50
2018-08-24T03:14:22.562Z,1.70
2018-08-24T03:17:32.125Z,1.43
2018-08-24T03:20:36.351Z,1.37
2018-08-24T03:23:40.557Z,1.50
2018-08-24T03:26:44.799Z,1.80
2018-08-24T03:29:49.045Z,1.93
2018-08-24T03:32:53.295Z,2.07
2018-08-24T03:35:57.563Z,2.57
2018-08-24T03:39:01.879Z,2.57
2018-08-24T03:42:06.205Z,3.07
2018-08-24T03:45:10.457Z,2.60
2018-08-24T03:48:14.660Z,2.67
2018-08-24T03:51:18.856Z,2.60
2018-08-24T03:54:23.673Z,2.70
2018-08-24T03:57:27.905Z,3.30
2018-08-24T04:00:32.121Z,3.20
2018-08-24T04:03:36.329Z,3.43
2018-08-24T04:06:40.554Z,3.53
2018-08-24T04:09:44.752Z,3.77
2018-08-24T04:12:49.094Z,3.70
2018-08-24T04:15:53.240Z,3.90
2018-08-24T04:18:57.448Z,3.90
2018-08-24T04:22:01.692Z,3.90
2018-08-24T04:25:06.823Z,3.93
2018-08-24T04:28:11.052Z,3.53
2018-08-24T04:31:15.277Z,3.70
2018-08-24T04:34:19.476Z,3.53
2018-08-24T04:37:23.712Z,3.60
2018-08-24T04:40:28.148Z,3.60
2018-08-24T04:43:32.205Z,2.73
2018-08-24T04:46:36.585Z,3.10
2018-08-24T04:49:40.831Z,3.10
2018-08-24T04:52:45.040Z,2.83
2018-08-24T04:55:49.234Z,3.33
2018-08-24T04:58:53.505Z,3.00
2018-08-24T05:01:57.712Z,3.13
2018-08-24T05:05:01.939Z,3.17
2018-08-24T05:08:06.149Z,3.23
2018-08-24T05:11:10.378Z,2.20
2018-08-24T05:14:14.588Z,2.53
2018-08-24T05:17:20.581Z,2.40
2018-08-24T05:20:24.812Z,2.80
2018-08-24T05:23:29.072Z,2.63
2018-08-24T05:26:33.280Z,2.70
2018-08-24T05:29:37.503Z,2.77
2018-08-24T05:32:41.716Z,2.70
2018-08-24T05:35:46.034Z,2.70
2018-08-24T05:38:50.204Z,3.03
2018-08-24T05:41:54.409Z,2.83
2018-08-24T05:44:58.645Z,3.07
2018-08-24T05:48:02.876Z,3.93
2018-08-24T05:51:07.165Z,3.30
2018-08-24T05:54:11.393Z,3.47
2018-08-24T05:57:15.675Z,3.40
2018-08-24T06:00:23.989Z,3.87
2018-08-24T06:03:28.235Z,3.63
2018-08-24T06:06:32.476Z,4.30
2018-08-24T06:09:36.748Z,4.33
2018-08-24T06:12:40.979Z,5.10
2018-08-24T06:15:46.559Z,5.00
2018-08-24T06:18:50.817Z,5.03
2018-08-24T06:21:55.062Z,5.13
2018-08-24T06:24:59.289Z,5.27
2018-08-24T06:28:03.517Z,4.67
2018-08-24T06:31:07.729Z,4.60
2018-08-24T06:34:11.977Z,5.27
2018-08-24T06:37:16.207Z,5.33
2018-08-24T06:40:20.477Z,5.63
2018-08-24T06:43:24.788Z,6.20
2018-08-24T06:46:29.086Z,6.73
2018-08-24T06:49:33.359Z,6.70
2018-08-24T06:52:37.589Z,6.00
2018-08-24T06:55:41.878Z,6.10
2018-08-24T06:58:46.120Z,6.43
2018-08-24T07:01:50.458Z,6.30
2018-08-24T07:04:54.729Z,5.73
2018-08-24T07:07:59.022Z,5.87
2018-08-24T07:11:03.286Z,5.50
2018-08-24T07:14:07.525Z,4.27
2018-08-24T07:17:11.805Z,4.93
2018-08-24T07:20:16.057Z,4.50
2018-08-24T07:23:20.304Z,4.93
2018-08-24T07:26:24.533Z,4.30
2018-08-24T07:29:28.781Z,4.93
2018-08-24T07:32:33.037Z,4.27
2018-08-24T07:35:37.328Z,4.07
2018-08-24T07:38:41.560Z,3.50
2018-08-24T07:41:45.779Z,3.60
2018-08-24T07:44:53.640Z,3.37
2018-08-24T07:47:57.861Z,3.13
2018-08-24T07:51:02.115Z,3.57
2018-08-24T07:54:06.379Z,3.20
2018-08-24T07:57:10.738Z,2.60
2018-08-24T08:00:14.945Z,2.10
2018-08-24T08:03:19.273Z,2.33
2018-08-24T08:06:23.641Z,1.90
2018-08-24T08:09:27.946Z,1.60
2018-08-24T08:12:32.283Z,2.00
2018-08-24T08:15:36.481Z,1.70
2018-08-24T08:18:40.767Z,1.80
2018-08-24T08:21:44.941Z,2.17
2018-08-24T08:24:49.362Z,1.90
2018-08-24T08:27:53.454Z,2.30
2018-08-24T08:30:57.674Z,2.23
2018-08-24T08:34:01.886Z,2.03
2018-08-24T08:37:06.112Z,1.93
2018-08-24T08:40:10.342Z,1.70
2018-08-24T08:43:14.562Z,1.80
2018-08-24T08:46:18.837Z,1.80
2018-08-24T08:49:23.049Z,1.73
2018-08-24T08:52:27.286Z,1.83
2018-08-24T08:55:31.505Z,2.20
2018-08-24T08:58:35.765Z,1.63
2018-08-24T09:01:40.016Z,1.40
2018-08-24T09:04:44.280Z,2.50
2018-08-24T09:07:48.580Z,2.33
2018-08-24T09:10:52.821Z,2.20
2018-08-24T09:13:57.101Z,2.37
2018-08-24T09:17:05.429Z,2.33
2018-08-24T09:20:15.016Z,1.53
2018-08-24T09:23:24.562Z,1.23
2018-08-24T09:26:34.154Z,1.30
2018-08-24T09:29:38.440Z,1.20
2018-08-24T09:32:42.809Z,1.30
2018-08-24T09:35:47.000Z,1.13
2018-08-24T09:38:52.424Z,1.27
2018-08-24T09:41:58.784Z,1.60
2018-08-24T09:45:03.167Z,1.67
2018-08-24T09:48:12.693Z,1.83
2018-08-24T09:51:22.233Z,1.63
2018-08-24T09:54:26.452Z,1.20
2018-08-24T09:57:30.705Z,1.37
2018-08-24T10:00:40.232Z,1.03
2018-08-24T10:03:58.552Z,1.03
2018-08-24T10:07:07.900Z,0.90
2018-08-24T10:10:12.129Z,0.93
2018-08-24T10:13:16.379Z,0.80
2018-08-24T10:16:20.593Z,0.93
2018-08-24T10:19:24.833Z,1.00
2018-08-24T10:22:29.234Z,1.20
2018-08-24T10:25:33.457Z,0.90
2018-08-24T10:28:37.688Z,1.50
2018-08-24T10:31:41.909Z,1.43
2018-08-24T10:34:46.218Z,1.27
2018-08-24T10:37:50.465Z,1.70
2018-08-24T10:40:54.840Z,1.93
2018-08-24T10:43:58.984Z,1.47
2018-08-24T10:47:03.729Z,1.90
2018-08-24T10:50:07.954Z,1.90
2018-08-24T10:53:12.209Z,2.20
2018-08-24T10:56:16.487Z,2.20
2018-08-24T10:59:20.679Z,2.37
2018-08-24T11:02:24.897Z,1.70
2018-08-24T11:05:29.102Z,2.10
2018-08-24T11:08:33.328Z,1.50
2018-08-24T11:11:37.565Z,1.30
2018-08-24T11:14:41.785Z,1.80
2018-08-24T11:17:51.316Z,1.47
2018-08-24T11:20:55.512Z,1.70
2018-08-24T11:23:59.746Z,1.30
2018-08-24T11:27:03.988Z,2.07
2018-08-24T11:30:08.270Z,1.20
2018-08-24T11:33:12.492Z,1.50
2018-08-24T11:36:16.765Z,1.40
2018-08-24T11:39:20.967Z,1.50
2018-08-24T11:42:25.234Z,1.20
2018-08-24T11:45:29.496Z,0.80
2018-08-24T11:48:33.763Z,1.10
2018-08-24T11:51:37.969Z,1.07
2018-08-24T11:54:42.253Z,0.83
2018-08-24T11:57:46.460Z,1.00
2018-08-24T12:00:50.656Z,1.27
2018-08-24T12:03:54.882Z,0.87
2018-08-24T12:06:59.141Z,1.20
2018-08-24T12:10:03.405Z,1.30
2018-08-24T12:13:07.669Z,1.33
2018-08-24T12:16:11.880Z,1.60
2018-08-24T12:19:16.134Z,1.67
2018-08-24T12:22:20.410Z,1.23
2018-08-24T12:25:24.643Z,1.60
2018-08-24T12:28:28.888Z,1.27
2018-08-24T12:31:33.137Z,2.00
2018-08-24T12:34:37.418Z,2.00
2018-08-24T12:37:43.665Z,1.80
2018-08-24T12:40:47.911Z,1.93
2018-08-24T12:43:52.110Z,1.60
2018-08-24T12:46:56.387Z,2.10
2018-08-24T12:50:00.659Z,1.80
2018-08-24T12:53:04.872Z,1.40
2018-08-24T12:56:13.182Z,1.53
2018-08-24T12:59:17.396Z,1.50
2018-08-24T13:02:21.602Z,1.73
2018-08-24T13:05:25.806Z,1.30
2018-08-24T13:08:30.067Z,1.80
2018-08-24T13:11:34.302Z,1.63
2018-08-24T13:14:38.574Z,1.77
2018-08-24T13:17:43.165Z,1.30
2018-08-24T13:20:47.490Z,1.77
2018-08-24T13:23:51.756Z,1.60
2018-08-24T13:26:56.000Z,1.40
2018-08-24T13:30:00.261Z,1.13
2018-08-24T13:33:04.466Z,0.90
2018-08-24T13:36:08.718Z,1.20
2018-08-24T13:39:12.926Z,1.23
2018-08-24T13:42:17.701Z,1.50
2018-08-24T13:45:21.934Z,1.37
2018-08-24T13:48:26.165Z,1.67
2018-08-24T13:51:30.397Z,1.00
2018-08-24T13:54:34.642Z,1.60
2018-08-24T13:57:38.880Z,1.70
2018-08-24T14:00:43.112Z,1.80
2018-08-24T14:03:47.376Z,2.30
2018-08-24T14:06:51.599Z,2.17
2018-08-24T14:09:55.837Z,1.50
2018-08-24T14:13:00.154Z,0.67
2018-08-24T14:16:04.353Z,0.90
2018-08-24T14:19:08.611Z,1.07
2018-08-24T14:22:12.828Z,1.13
2018-08-24T14:25:18.820Z,1.60
2018-08-24T14:28:23.032Z,1.10
2018-08-24T14:31:27.309Z,1.17
2018-08-24T14:34:31.558Z,1.20
2018-08-24T14:37:35.805Z,1.57
2018-08-24T14:40:39.999Z,1.07
2018-08-24T14:43:44.263Z,1.37
2018-08-24T14:46:48.493Z,1.37
2018-08-24T14:49:52.930Z,1.67
2018-08-24T14:52:57.244Z,1.10
2018-08-24T14:56:01.541Z,1.30
2018-08-24T14:59:05.937Z,1.33
2018-08-24T15:02:10.147Z,1.30
2018-08-24T15:05:14.387Z,1.43
2018-08-24T15:08:18.600Z,1.30
2018-08-24T15:11:22.837Z,1.73
2018-08-24T15:14:27.086Z,1.43
2018-08-24T15:17:32.289Z,1.37
2018-08-24T15:20:36.542Z,1.27
2018-08-24T15:23:40.803Z,1.00
2018-08-24T15:26:45.025Z,1.23
2018-08-24T15:29:49.414Z,1.30
2018-08-24T15:32:53.681Z,1.10
2018-08-24T15:35:58.417Z,1.20
2018-08-24T15:39:02.609Z,1.57
2018-08-24T15:42:07.179Z,1.50
2018-08-24T15:45:11.430Z,1.80
2018-08-24T15:48:15.650Z,1.63
2018-08-24T15:51:19.909Z,0.90
2018-08-24T15:54:24.131Z,0.90
2018-08-24T15:57:28.369Z,1.40
2018-08-24T16:00:32.625Z,1.30
2018-08-24T16:03:36.868Z,1.10
2018-08-24T16:06:41.129Z,1.33
2018-08-24T16:09:45.334Z,1.23
2018-08-24T16:12:49.561Z,1.53
2018-08-24T16:15:53.769Z,1.40
2018-08-24T16:18:58.013Z,2.63
2018-08-24T16:22:02.287Z,1.50
2018-08-24T16:25:06.492Z,1.00
2018-08-24T16:28:10.725Z,1.30
2018-08-24T16:31:14.982Z,1.10
2018-08-24T16:34:19.220Z,1.23
2018-08-24T16:37:23.457Z,1.40
2018-08-24T16:40:27.693Z,1.33
2018-08-24T16:43:31.921Z,1.67
2018-08-24T16:46:36.190Z,1.20
2018-08-24T16:49:40.357Z,1.37
2018-08-24T16:52:44.590Z,1.43
2018-08-24T16:55:48.785Z,1.70
2018-08-24T16:58:53.018Z,1.30
2018-08-24T17:01:57.237Z,1.00
2018-08-24T17:05:01.439Z,1.23
2018-08-24T17:08:06.310Z,1.30
2018-08-24T17:11:10.632Z,1.50
2018-08-24T17:14:14.910Z,1.50
2018-08-24T17:17:19.139Z,1.40
2018-08-24T17:20:23.355Z,1.40
2018-08-24T17:23:27.589Z,1.10
2018-08-24T17:26:31.822Z,1.23
2018-08-24T17:29:36.169Z,1.40
2018-08-24T17:32:40.421Z,1.40
2018-08-24T17:35:44.710Z,1.40
2018-08-24T17:38:48.883Z,1.40
2018-08-24T17:41:53.163Z,1.57
2018-08-24T17:44:57.361Z,1.00
2018-08-24T17:48:01.667Z,1.53
2018-08-24T17:51:05.862Z,1.27
2018-08-24T17:54:10.157Z,1.43
2018-08-24T17:57:14.344Z,1.40
2018-08-24T18:00:18.632Z,1.17
2018-08-24T18:03:30.658Z,1.13
2018-08-24T18:06:34.923Z,1.10
2018-08-24T18:09:39.311Z,1.60
2018-08-24T18:12:43.532Z,1.10
2018-08-24T18:15:48.093Z,1.20
2018-08-24T18:18:52.370Z,1.20
2018-08-24T18:21:56.613Z,1.17
2018-08-24T18:25:00.850Z,1.27
2018-08-24T18:28:05.090Z,1.50
2018-08-24T18:31:09.463Z,1.27
2018-08-24T18:34:13.695Z,1.53
2018-08-24T18:37:18.976Z,1.60
2018-08-24T18:40:23.114Z,1.70
2018-08-24T18:43:27.373Z,1.90
2018-08-24T18:46:31.617Z,2.13
2018-08-24T18:49:35.859Z,2.53
2018-08-24T18:52:40.105Z,2.40
2018-08-24T18:55:44.325Z,2.57
2018-08-24T18:58:48.573Z,3.53
2018-08-24T19:01:52.797Z,2.30
2018-08-24T19:04:57.093Z,2.37
2018-08-24T19:08:06.705Z,1.67
2018-08-24T19:11:16.185Z,1.60
2018-08-24T19:14:20.413Z,2.20
2018-08-24T19:17:29.998Z,1.10
2018-08-24T19:21:37.153Z,0.70
2018-08-24T19:24:41.395Z,1.07
2018-08-24T19:27:50.868Z,1.23
2018-08-24T19:30:55.081Z,1.13
2018-08-24T19:33:59.312Z,0.90
2018-08-24T19:37:03.554Z,1.10
2018-08-24T19:41:16.689Z,1.20
2018-08-24T19:44:20.909Z,2.27
2018-08-24T19:47:30.377Z,1.80
2018-08-24T19:50:34.625Z,2.30
2018-08-24T19:53:38.850Z,1.60
2018-08-24T19:56:43.297Z,1.43
2018-08-24T19:59:47.525Z,1.67
2018-08-24T20:02:51.777Z,1.60
2018-08-24T20:06:01.342Z,1.60
2018-08-24T20:09:15.430Z,1.40
2018-08-24T20:12:19.676Z,2.07
2018-08-24T20:15:29.154Z,1.33
2018-08-24T20:18:33.441Z,1.73
2018-08-24T20:21:37.689Z,1.17
2018-08-24T20:24:41.996Z,1.17
2018-08-24T20:27:46.345Z,1.10
2018-08-24T20:30:50.559Z,1.50
2018-08-24T20:33:54.793Z,1.50
2018-08-24T20:36:59.001Z,0.73
2018-08-24T20:40:03.360Z,1.30
2018-08-24T20:43:07.516Z,1.10
2018-08-24T20:46:11.736Z,1.03
2018-08-24T20:49:15.937Z,1.07
2018-08-24T20:52:20.206Z,1.50
2018-08-24T20:55:24.536Z,1.07
2018-08-24T20:58:28.753Z,1.33
2018-08-24T21:01:32.965Z,1.10
2018-08-24T21:04:37.152Z,1.40
2018-08-24T21:07:41.362Z,1.47
2018-08-24T21:10:45.691Z,1.50
2018-08-24T21:13:49.930Z,1.70
2018-08-24T21:16:54.301Z,1.57
2018-08-24T21:19:58.526Z,1.63
2018-08-24T21:23:02.733Z,1.70
2018-08-24T21:26:06.982Z,1.93
2018-08-24T21:29:11.237Z,1.77
2018-08-24T21:32:15.425Z,1.70
2018-08-24T21:35:21.060Z,1.60
2018-08-24T21:38:25.293Z,2.03
2018-08-24T21:41:29.527Z,1.77
2018-08-24T21:44:33.764Z,1.57
2018-08-24T21:47:38.024Z,2.00
2018-08-24T21:50:42.251Z,2.03
2018-08-24T21:53:46.460Z,1.23
2018-08-24T21:56:52.858Z,1.87
2018-08-24T21:59:57.112Z,1.60
2018-08-24T22:03:01.392Z,1.60
2018-08-24T22:06:05.771Z,2.03
2018-08-24T22:09:11.177Z,1.90
2018-08-24T22:12:15.396Z,1.57
2018-08-24T22:15:20.788Z,1.50
2018-08-24T22:18:25.353Z,1.50
2018-08-24T22:21:29.560Z,1.80
2018-08-24T22:24:33.815Z,2.50
2018-08-24T22:27:38.674Z,1.60
2018-08-24T22:30:43.233Z,1.90
2018-08-24T22:33:49.312Z,1.83
2018-08-24T22:36:54.572Z,1.90
2018-08-24T22:39:58.920Z,1.67
2018-08-24T22:43:03.152Z,2.00
2018-08-24T22:46:07.506Z,1.80
2018-08-24T22:49:11.957Z,1.70
2018-08-24T22:52:16.197Z,2.80
2018-08-24T22:55:20.461Z,1.93
2018-08-24T22:58:24.777Z,1.73
2018-08-24T23:01:28.992Z,1.50
2018-08-24T23:04:33.250Z,2.00
2018-08-24T23:07:37.449Z,1.97
2018-08-24T23:10:41.733Z,2.00
2018-08-24T23:13:46.090Z,1.93
2018-08-24T23:16:50.333Z,1.63
2018-08-24T23:19:54.543Z,2.07
2018-08-24T23:22:58.761Z,2.20
2018-08-24T23:26:02.977Z,2.07
2018-08-24T23:29:07.237Z,2.23
2018-08-24T23:32:11.747Z,2.13
2018-08-24T23:35:15.981Z,2.07
2018-08-24T23:38:20.381Z,1.90
2018-08-24T23:41:24.654Z,1.53
2018-08-24T23:44:28.997Z,1.60
2018-08-24T23:47:33.226Z,2.20
2018-08-24T23:50:37.468Z,1.97
2018-08-24T23:53:41.682Z,1.50
2018-08-24T23:56:46.155Z,1.50
2018-08-24T23:59:50.819Z,1.53
